Terminal Aerodrome Forecast
Issued by NWS

Home | Current Version | Previous Version | Text Only | Print | Product List | Glossary On
Versions: 1 2 3 4 5 6 7 8 9 10 11 12 13 14 15 16 17 18 19 20 21 22 23 24 25 26 27 28 29
065
FTUS42 KCAE 261128
TAFCUB
TAF
KCUB 261128Z 2612/2712 VRB04KT P6SM SCT060 BKN120
     FM261400 16009KT P6SM SCT025 BKN050
     FM261600 17008G15KT P6SM BKN035
     FM270000 15005KT P6SM BKN050
     FM270900 VRB03KT 3SM BR BKN015=

USA.gov is the U.S. government's official web portal to all federal, state and local government web resources and services.